sensor_id;sensor_type;location;lat;lon;timestamp;temperature;humidity
6484;DHT22;3275;52.376;9.694;2023-09-12T00:00:40;23.50;99.90
6484;DHT22;3275;52.376;9.694;2023-09-12T00:03:06;23.50;99.90
6484;DHT22;3275;52.376;9.694;2023-09-12T00:05:33;23.40;99.90
6484;DHT22;3275;52.376;9.694;2023-09-12T00:08:00;23.40;99.90
6484;DHT22;3275;52.376;9.694;2023-09-12T00:10:27;23.40;99.90
6484;DHT22;3275;52.376;9.694;2023-09-12T00:12:55;23.30;99.90
6484;DHT22;3275;52.376;9.694;2023-09-12T00:15:22;23.20;99.90
6484;DHT22;3275;52.376;9.694;2023-09-12T00:17:50;23.20;99.90
6484;DHT22;3275;52.376;9.694;2023-09-12T00:20:16;23.10;99.90
6484;DHT22;3275;52.376;9.694;2023-09-12T00:22:43;23.10;99.90
6484;DHT22;3275;52.376;9.694;2023-09-12T00:25:09;23.00;99.90
6484;DHT22;3275;52.376;9.694;2023-09-12T00:27:36;23.00;99.90
6484;DHT22;3275;52.376;9.694;2023-09-12T00:30:04;23.00;99.90
6484;DHT22;3275;52.376;9.694;2023-09-12T00:32:30;22.90;99.90
6484;DHT22;3275;52.376;9.694;2023-09-12T00:34:58;22.90;99.90
6484;DHT22;3275;52.376;9.694;2023-09-12T00:37:25;22.90;99.90
6484;DHT22;3275;52.376;9.694;2023-09-12T00:39:52;22.90;99.90
6484;DHT22;3275;52.376;9.694;2023-09-12T00:42:19;22.80;99.90
6484;DHT22;3275;52.376;9.694;2023-09-12T00:44:45;22.80;99.90
6484;DHT22;3275;52.376;9.694;2023-09-12T00:47:13;22.80;99.90
6484;DHT22;3275;52.376;9.694;2023-09-12T00:49:40;22.80;99.90
6484;DHT22;3275;52.376;9.694;2023-09-12T00:52:08;22.90;99.90
6484;DHT22;3275;52.376;9.694;2023-09-12T00:54:35;22.90;99.90
6484;DHT22;3275;52.376;9.694;2023-09-12T00:57:02;22.90;99.90
6484;DHT22;3275;52.376;9.694;2023-09-12T00:59:29;22.90;99.90
6484;DHT22;3275;52.376;9.694;2023-09-12T01:01:55;22.80;99.90
6484;DHT22;3275;52.376;9.694;2023-09-12T01:04:22;22.80;99.90
6484;DHT22;3275;52.376;9.694;2023-09-12T01:06:50;22.80;99.90
6484;DHT22;3275;52.376;9.694;2023-09-12T01:09:19;22.80;99.90
6484;DHT22;3275;52.376;9.694;2023-09-12T01:11:46;22.70;99.90
6484;DHT22;3275;52.376;9.694;2023-09-12T01:14:13;22.70;99.90
6484;DHT22;3275;52.376;9.694;2023-09-12T01:16:39;22.70;99.90
6484;DHT22;3275;52.376;9.694;2023-09-12T01:19:08;22.70;99.90
6484;DHT22;3275;52.376;9.694;2023-09-12T01:27:45;22.60;99.90
6484;DHT22;3275;52.376;9.694;2023-09-12T01:30:13;22.60;99.90
6484;DHT22;3275;52.376;9.694;2023-09-12T01:36:05;22.60;99.90
6484;DHT22;3275;52.376;9.694;2023-09-12T01:38:32;22.60;99.90
6484;DHT22;3275;52.376;9.694;2023-09-12T01:40:59;22.60;99.90
6484;DHT22;3275;52.376;9.694;2023-09-12T01:43:27;22.50;99.90
6484;DHT22;3275;52.376;9.694;2023-09-12T01:45:56;22.50;99.90
6484;DHT22;3275;52.376;9.694;2023-09-12T01:48:27;22.50;99.90
6484;DHT22;3275;52.376;9.694;2023-09-12T01:50:59;22.50;99.90
6484;DHT22;3275;52.376;9.694;2023-09-12T01:53:26;22.50;99.90
6484;DHT22;3275;52.376;9.694;2023-09-12T01:55:54;22.50;99.90
6484;DHT22;3275;52.376;9.694;2023-09-12T01:58:21;22.40;99.90
6484;DHT22;3275;52.376;9.694;2023-09-12T02:00:49;22.40;99.90
6484;DHT22;3275;52.376;9.694;2023-09-12T02:03:16;22.40;99.90
6484;DHT22;3275;52.376;9.694;2023-09-12T02:05:43;22.40;99.90
6484;DHT22;3275;52.376;9.694;2023-09-12T02:08:10;22.40;99.90
6484;DHT22;3275;52.376;9.694;2023-09-12T02:10:37;22.30;99.90
6484;DHT22;3275;52.376;9.694;2023-09-12T02:13:03;22.30;99.90
6484;DHT22;3275;52.376;9.694;2023-09-12T02:15:30;22.30;99.90
6484;DHT22;3275;52.376;9.694;2023-09-12T02:17:58;22.30;99.90
6484;DHT22;3275;52.376;9.694;2023-09-12T02:20:25;22.30;99.90
6484;DHT22;3275;52.376;9.694;2023-09-12T02:22:51;22.30;99.90
6484;DHT22;3275;52.376;9.694;2023-09-12T02:25:18;22.40;99.90
6484;DHT22;3275;52.376;9.694;2023-09-12T02:27:45;22.30;99.90
6484;DHT22;3275;52.376;9.694;2023-09-12T02:30:11;22.20;99.90
6484;DHT22;3275;52.376;9.694;2023-09-12T02:32:38;22.20;99.90
6484;DHT22;3275;52.376;9.694;2023-09-12T02:35:06;22.20;99.90
6484;DHT22;3275;52.376;9.694;2023-09-12T02:37:33;22.20;99.90
6484;DHT22;3275;52.376;9.694;2023-09-12T02:40:00;22.10;99.90
6484;DHT22;3275;52.376;9.694;2023-09-12T02:42:27;22.10;99.90
6484;DHT22;3275;52.376;9.694;2023-09-12T02:44:53;22.00;99.90
6484;DHT22;3275;52.376;9.694;2023-09-12T02:47:20;22.00;99.90
6484;DHT22;3275;52.376;9.694;2023-09-12T02:49:46;22.00;99.90
6484;DHT22;3275;52.376;9.694;2023-09-12T02:52:14;22.00;99.90
6484;DHT22;3275;52.376;9.694;2023-09-12T02:54:41;22.00;99.90
6484;DHT22;3275;52.376;9.694;2023-09-12T02:57:08;22.00;99.90
6484;DHT22;3275;52.376;9.694;2023-09-12T02:59:34;22.00;99.90
6484;DHT22;3275;52.376;9.694;2023-09-12T03:02:01;22.00;99.90
6484;DHT22;3275;52.376;9.694;2023-09-12T03:04:29;22.00;99.90
6484;DHT22;3275;52.376;9.694;2023-09-12T03:06:56;22.10;99.90
6484;DHT22;3275;52.376;9.694;2023-09-12T03:09:24;22.10;99.90
6484;DHT22;3275;52.376;9.694;2023-09-12T03:11:50;22.10;99.90
6484;DHT22;3275;52.376;9.694;2023-09-12T03:14:17;22.10;99.90
6484;DHT22;3275;52.376;9.694;2023-09-12T03:16:44;22.10;99.90
6484;DHT22;3275;52.376;9.694;2023-09-12T03:19:10;22.10;99.90
6484;DHT22;3275;52.376;9.694;2023-09-12T03:21:37;22.10;99.90
6484;DHT22;3275;52.376;9.694;2023-09-12T03:24:05;22.10;99.90
6484;DHT22;3275;52.376;9.694;2023-09-12T03:26:36;22.10;99.90
6484;DHT22;3275;52.376;9.694;2023-09-12T03:29:03;22.10;99.90
6484;DHT22;3275;52.376;9.694;2023-09-12T03:31:30;22.10;99.90
6484;DHT22;3275;52.376;9.694;2023-09-12T03:33:56;22.10;99.90
6484;DHT22;3275;52.376;9.694;2023-09-12T03:36:23;22.10;99.90
6484;DHT22;3275;52.376;9.694;2023-09-12T03:38:50;22.00;99.90
6484;DHT22;3275;52.376;9.694;2023-09-12T03:41:17;22.00;99.90
6484;DHT22;3275;52.376;9.694;2023-09-12T03:43:45;22.00;99.90
6484;DHT22;3275;52.376;9.694;2023-09-12T03:46:11;21.90;99.90
6484;DHT22;3275;52.376;9.694;2023-09-12T03:48:38;21.90;99.90
6484;DHT22;3275;52.376;9.694;2023-09-12T03:51:05;21.90;99.90
6484;DHT22;3275;52.376;9.694;2023-09-12T03:53:31;21.80;99.90
6484;DHT22;3275;52.376;9.694;2023-09-12T03:55:58;21.90;99.90
6484;DHT22;3275;52.376;9.694;2023-09-12T03:58:25;21.80;99.90
6484;DHT22;3275;52.376;9.694;2023-09-12T04:00:53;21.80;99.90
6484;DHT22;3275;52.376;9.694;2023-09-12T04:03:20;21.80;99.90
6484;DHT22;3275;52.376;9.694;2023-09-12T04:05:47;21.80;99.90
6484;DHT22;3275;52.376;9.694;2023-09-12T04:08:14;21.80;99.90
6484;DHT22;3275;52.376;9.694;2023-09-12T04:10:41;21.70;99.90
6484;DHT22;3275;52.376;9.694;2023-09-12T04:13:07;21.70;99.90
6484;DHT22;3275;52.376;9.694;2023-09-12T04:15:34;21.70;99.90
6484;DHT22;3275;52.376;9.694;2023-09-12T04:18:02;21.70;99.90
6484;DHT22;3275;52.376;9.694;2023-09-12T04:20:29;21.70;99.90
6484;DHT22;3275;52.376;9.694;2023-09-12T04:22:55;21.70;99.90
6484;DHT22;3275;52.376;9.694;2023-09-12T04:25:22;21.70;99.90
6484;DHT22;3275;52.376;9.694;2023-09-12T04:27:49;21.70;99.90
6484;DHT22;3275;52.376;9.694;2023-09-12T04:30:16;21.70;99.90
6484;DHT22;3275;52.376;9.694;2023-09-12T04:32:42;21.70;99.90
6484;DHT22;3275;52.376;9.694;2023-09-12T04:35:10;21.70;99.90
6484;DHT22;3275;52.376;9.694;2023-09-12T04:37:37;21.70;99.90
6484;DHT22;3275;52.376;9.694;2023-09-12T04:40:06;21.60;99.90
6484;DHT22;3275;52.376;9.694;2023-09-12T04:42:32;21.60;99.90
6484;DHT22;3275;52.376;9.694;2023-09-12T04:44:59;21.60;99.90
6484;DHT22;3275;52.376;9.694;2023-09-12T04:47:26;21.60;99.90
6484;DHT22;3275;52.376;9.694;2023-09-12T04:49:53;21.60;99.90
6484;DHT22;3275;52.376;9.694;2023-09-12T04:52:21;21.60;99.90
6484;DHT22;3275;52.376;9.694;2023-09-12T04:54:47;21.60;99.90
6484;DHT22;3275;52.376;9.694;2023-09-12T04:57:14;21.60;99.90
6484;DHT22;3275;52.376;9.694;2023-09-12T04:59:40;21.70;99.90
6484;DHT22;3275;52.376;9.694;2023-09-12T05:02:07;21.70;99.90
6484;DHT22;3275;52.376;9.694;2023-09-12T05:04:34;21.70;99.90
6484;DHT22;3275;52.376;9.694;2023-09-12T05:07:00;21.70;99.90
6484;DHT22;3275;52.376;9.694;2023-09-12T05:09:28;21.60;99.90
6484;DHT22;3275;52.376;9.694;2023-09-12T05:11:55;21.60;99.90
6484;DHT22;3275;52.376;9.694;2023-09-12T05:14:22;21.60;99.90
6484;DHT22;3275;52.376;9.694;2023-09-12T05:16:48;21.70;99.90
6484;DHT22;3275;52.376;9.694;2023-09-12T05:19:15;21.80;99.90
6484;DHT22;3275;52.376;9.694;2023-09-12T05:21:42;21.80;99.90
6484;DHT22;3275;52.376;9.694;2023-09-12T05:24:08;21.70;99.90
6484;DHT22;3275;52.376;9.694;2023-09-12T05:26:36;21.60;99.90
6484;DHT22;3275;52.376;9.694;2023-09-12T05:29:03;21.60;99.90
6484;DHT22;3275;52.376;9.694;2023-09-12T05:31:31;21.60;99.90
6484;DHT22;3275;52.376;9.694;2023-09-12T05:33:58;21.50;99.90
6484;DHT22;3275;52.376;9.694;2023-09-12T05:36:24;21.40;99.90
6484;DHT22;3275;52.376;9.694;2023-09-12T05:38:51;21.30;99.90
6484;DHT22;3275;52.376;9.694;2023-09-12T05:41:18;21.20;99.90
6484;DHT22;3275;52.376;9.694;2023-09-12T05:43:45;21.10;99.90
6484;DHT22;3275;52.376;9.694;2023-09-12T05:46:12;21.00;99.90
6484;DHT22;3275;52.376;9.694;2023-09-12T05:48:39;21.20;99.90
6484;DHT22;3275;52.376;9.694;2023-09-12T05:51:05;21.20;99.90
6484;DHT22;3275;52.376;9.694;2023-09-12T05:53:32;21.00;99.90
6484;DHT22;3275;52.376;9.694;2023-09-12T05:55:59;20.90;99.90
6484;DHT22;3275;52.376;9.694;2023-09-12T05:58:25;20.70;99.90
6484;DHT22;3275;52.376;9.694;2023-09-12T06:00:53;20.40;99.90
6484;DHT22;3275;52.376;9.694;2023-09-12T06:03:21;20.30;99.90
6484;DHT22;3275;52.376;9.694;2023-09-12T06:05:48;20.20;99.90
6484;DHT22;3275;52.376;9.694;2023-09-12T06:08:14;20.00;99.90
6484;DHT22;3275;52.376;9.694;2023-09-12T06:10:41;19.90;99.90
6484;DHT22;3275;52.376;9.694;2023-09-12T06:13:07;19.80;99.90
6484;DHT22;3275;52.376;9.694;2023-09-12T06:15:34;19.80;99.90
6484;DHT22;3275;52.376;9.694;2023-09-12T06:18:03;19.70;99.90
6484;DHT22;3275;52.376;9.694;2023-09-12T06:20:29;19.80;99.90
6484;DHT22;3275;52.376;9.694;2023-09-12T06:22:56;19.80;99.90
6484;DHT22;3275;52.376;9.694;2023-09-12T06:25:24;19.70;99.90
6484;DHT22;3275;52.376;9.694;2023-09-12T06:27:51;19.70;99.90
6484;DHT22;3275;52.376;9.694;2023-09-12T06:30:18;19.60;99.90
6484;DHT22;3275;52.376;9.694;2023-09-12T06:32:44;19.60;99.90
6484;DHT22;3275;52.376;9.694;2023-09-12T06:35:15;19.50;99.90
6484;DHT22;3275;52.376;9.694;2023-09-12T06:37:43;19.60;99.90
6484;DHT22;3275;52.376;9.694;2023-09-12T06:40:10;19.70;99.90
6484;DHT22;3275;52.376;9.694;2023-09-12T06:42:37;19.90;99.90
6484;DHT22;3275;52.376;9.694;2023-09-12T06:45:04;19.70;99.90
6484;DHT22;3275;52.376;9.694;2023-09-12T06:47:31;19.60;99.90
6484;DHT22;3275;52.376;9.694;2023-09-12T06:49:58;19.60;99.90
6484;DHT22;3275;52.376;9.694;2023-09-12T06:52:26;19.60;99.90
6484;DHT22;3275;52.376;9.694;2023-09-12T06:54:52;19.60;99.90
6484;DHT22;3275;52.376;9.694;2023-09-12T06:57:19;19.60;99.90
6484;DHT22;3275;52.376;9.694;2023-09-12T06:59:46;19.70;99.90
6484;DHT22;3275;52.376;9.694;2023-09-12T07:02:13;19.70;99.90
6484;DHT22;3275;52.376;9.694;2023-09-12T07:04:40;19.70;99.90
6484;DHT22;3275;52.376;9.694;2023-09-12T07:07:06;19.80;99.90
6484;DHT22;3275;52.376;9.694;2023-09-12T07:09:34;19.80;99.90
6484;DHT22;3275;52.376;9.694;2023-09-12T07:12:01;19.90;99.90
6484;DHT22;3275;52.376;9.694;2023-09-12T07:14:28;20.00;99.90
6484;DHT22;3275;52.376;9.694;2023-09-12T07:16:56;20.00;99.90
6484;DHT22;3275;52.376;9.694;2023-09-12T07:19:23;20.00;99.90
6484;DHT22;3275;52.376;9.694;2023-09-12T07:21:50;19.90;99.90
6484;DHT22;3275;52.376;9.694;2023-09-12T07:24:16;19.90;99.90
6484;DHT22;3275;52.376;9.694;2023-09-12T07:26:44;19.90;99.90
6484;DHT22;3275;52.376;9.694;2023-09-12T07:29:11;19.80;99.90
6484;DHT22;3275;52.376;9.694;2023-09-12T07:31:38;19.90;99.90
6484;DHT22;3275;52.376;9.694;2023-09-12T07:34:05;19.90;99.90
6484;DHT22;3275;52.376;9.694;2023-09-12T07:36:33;20.00;99.90
6484;DHT22;3275;52.376;9.694;2023-09-12T07:39:00;20.10;99.90
6484;DHT22;3275;52.376;9.694;2023-09-12T07:41:27;20.10;99.90
6484;DHT22;3275;52.376;9.694;2023-09-12T07:43:55;20.10;99.90
6484;DHT22;3275;52.376;9.694;2023-09-12T07:46:22;20.20;99.90
6484;DHT22;3275;52.376;9.694;2023-09-12T07:48:49;20.30;99.90
6484;DHT22;3275;52.376;9.694;2023-09-12T07:51:16;20.40;99.90
6484;DHT22;3275;52.376;9.694;2023-09-12T07:53:43;20.50;99.90
6484;DHT22;3275;52.376;9.694;2023-09-12T07:56:10;20.60;99.90
6484;DHT22;3275;52.376;9.694;2023-09-12T07:58:37;20.70;99.90
6484;DHT22;3275;52.376;9.694;2023-09-12T08:01:08;20.70;99.90
6484;DHT22;3275;52.376;9.694;2023-09-12T08:03:36;20.70;99.90
6484;DHT22;3275;52.376;9.694;2023-09-12T08:06:05;20.80;99.90
6484;DHT22;3275;52.376;9.694;2023-09-12T08:08:32;20.80;99.90
6484;DHT22;3275;52.376;9.694;2023-09-12T08:10:59;20.90;99.90
6484;DHT22;3275;52.376;9.694;2023-09-12T08:13:26;20.80;99.90
6484;DHT22;3275;52.376;9.694;2023-09-12T08:15:54;20.80;99.90
6484;DHT22;3275;52.376;9.694;2023-09-12T08:18:25;20.70;99.90
6484;DHT22;3275;52.376;9.694;2023-09-12T08:20:52;20.70;99.90
6484;DHT22;3275;52.376;9.694;2023-09-12T08:23:19;20.70;99.90
6484;DHT22;3275;52.376;9.694;2023-09-12T08:25:46;20.80;99.90
6484;DHT22;3275;52.376;9.694;2023-09-12T08:28:12;20.70;99.90
6484;DHT22;3275;52.376;9.694;2023-09-12T08:30:39;20.70;99.90
6484;DHT22;3275;52.376;9.694;2023-09-12T08:33:06;20.60;99.90
6484;DHT22;3275;52.376;9.694;2023-09-12T08:35:34;20.80;99.90
6484;DHT22;3275;52.376;9.694;2023-09-12T08:38:01;20.90;99.90
6484;DHT22;3275;52.376;9.694;2023-09-12T08:40:27;21.00;99.90
6484;DHT22;3275;52.376;9.694;2023-09-12T08:42:57;21.00;99.90
6484;DHT22;3275;52.376;9.694;2023-09-12T08:45:24;21.00;99.90
6484;DHT22;3275;52.376;9.694;2023-09-12T08:47:53;21.00;99.90
6484;DHT22;3275;52.376;9.694;2023-09-12T08:50:20;21.00;99.90
6484;DHT22;3275;52.376;9.694;2023-09-12T08:52:50;20.90;99.90
6484;DHT22;3275;52.376;9.694;2023-09-12T08:55:17;20.90;99.90
6484;DHT22;3275;52.376;9.694;2023-09-12T08:57:47;20.80;99.90
6484;DHT22;3275;52.376;9.694;2023-09-12T09:00:16;20.70;99.90
6484;DHT22;3275;52.376;9.694;2023-09-12T09:02:44;20.60;99.90
6484;DHT22;3275;52.376;9.694;2023-09-12T09:05:11;20.60;99.90
6484;DHT22;3275;52.376;9.694;2023-09-12T09:07:39;20.60;99.90
6484;DHT22;3275;52.376;9.694;2023-09-12T09:10:13;20.70;99.90
6484;DHT22;3275;52.376;9.694;2023-09-12T09:12:43;20.60;99.90
6484;DHT22;3275;52.376;9.694;2023-09-12T09:15:27;20.70;99.90
6484;DHT22;3275;52.376;9.694;2023-09-12T09:17:56;20.70;99.90
6484;DHT22;3275;52.376;9.694;2023-09-12T09:20:27;20.60;99.90
6484;DHT22;3275;52.376;9.694;2023-09-12T09:22:58;20.60;99.90
6484;DHT22;3275;52.376;9.694;2023-09-12T09:25:26;20.60;99.90
6484;DHT22;3275;52.376;9.694;2023-09-12T09:27:53;20.50;99.90
6484;DHT22;3275;52.376;9.694;2023-09-12T09:30:39;20.50;99.90
6484;DHT22;3275;52.376;9.694;2023-09-12T09:33:06;20.70;99.90
6484;DHT22;3275;52.376;9.694;2023-09-12T09:35:33;20.60;99.90
6484;DHT22;3275;52.376;9.694;2023-09-12T09:38:00;20.40;99.90
6484;DHT22;3275;52.376;9.694;2023-09-12T09:40:28;20.20;99.90
6484;DHT22;3275;52.376;9.694;2023-09-12T09:42:55;20.20;99.90
6484;DHT22;3275;52.376;9.694;2023-09-12T09:45:22;20.00;99.90
6484;DHT22;3275;52.376;9.694;2023-09-12T09:47:49;19.80;99.90
6484;DHT22;3275;52.376;9.694;2023-09-12T09:50:16;19.80;99.90
6484;DHT22;3275;52.376;9.694;2023-09-12T09:52:43;19.80;99.90
6484;DHT22;3275;52.376;9.694;2023-09-12T09:55:13;19.70;99.90
6484;DHT22;3275;52.376;9.694;2023-09-12T09:57:41;19.60;99.90
6484;DHT22;3275;52.376;9.694;2023-09-12T10:00:08;19.70;99.90
6484;DHT22;3275;52.376;9.694;2023-09-12T10:02:40;19.60;99.90
6484;DHT22;3275;52.376;9.694;2023-09-12T10:05:09;19.50;99.90
6484;DHT22;3275;52.376;9.694;2023-09-12T10:07:37;19.50;99.90
6484;DHT22;3275;52.376;9.694;2023-09-12T10:10:05;19.50;99.90
6484;DHT22;3275;52.376;9.694;2023-09-12T10:12:35;19.40;99.90
6484;DHT22;3275;52.376;9.694;2023-09-12T10:15:05;19.50;99.90
6484;DHT22;3275;52.376;9.694;2023-09-12T10:17:39;19.50;99.90
6484;DHT22;3275;52.376;9.694;2023-09-12T10:20:16;19.50;99.90
6484;DHT22;3275;52.376;9.694;2023-09-12T10:22:55;19.50;99.90
6484;DHT22;3275;52.376;9.694;2023-09-12T10:25:23;19.60;99.90
6484;DHT22;3275;52.376;9.694;2023-09-12T10:27:51;19.60;99.90
6484;DHT22;3275;52.376;9.694;2023-09-12T10:30:21;19.60;99.90
6484;DHT22;3275;52.376;9.694;2023-09-12T10:32:48;19.60;99.90
6484;DHT22;3275;52.376;9.694;2023-09-12T10:35:16;19.60;99.90
6484;DHT22;3275;52.376;9.694;2023-09-12T10:37:45;19.60;99.90
6484;DHT22;3275;52.376;9.694;2023-09-12T10:40:13;19.60;99.90
6484;DHT22;3275;52.376;9.694;2023-09-12T10:42:41;19.70;99.90
6484;DHT22;3275;52.376;9.694;2023-09-12T10:45:10;19.80;99.90
6484;DHT22;3275;52.376;9.694;2023-09-12T10:47:38;19.90;99.90
6484;DHT22;3275;52.376;9.694;2023-09-12T10:50:06;19.90;99.90
6484;DHT22;3275;52.376;9.694;2023-09-12T10:52:33;19.90;99.90
6484;DHT22;3275;52.376;9.694;2023-09-12T10:55:04;19.90;99.90
6484;DHT22;3275;52.376;9.694;2023-09-12T10:57:32;19.90;99.90
6484;DHT22;3275;52.376;9.694;2023-09-12T11:00:10;19.90;99.90
6484;DHT22;3275;52.376;9.694;2023-09-12T11:02:40;19.90;99.90
6484;DHT22;3275;52.376;9.694;2023-09-12T11:05:37;20.00;99.90
6484;DHT22;3275;52.376;9.694;2023-09-12T11:08:04;20.00;99.90
6484;DHT22;3275;52.376;9.694;2023-09-12T11:10:31;20.00;99.90
6484;DHT22;3275;52.376;9.694;2023-09-12T11:12:58;20.00;99.90
6484;DHT22;3275;52.376;9.694;2023-09-12T11:15:26;20.10;99.90
6484;DHT22;3275;52.376;9.694;2023-09-12T11:18:04;20.00;99.90
6484;DHT22;3275;52.376;9.694;2023-09-12T11:20:51;20.00;99.90
6484;DHT22;3275;52.376;9.694;2023-09-12T11:23:19;19.90;99.90
6484;DHT22;3275;52.376;9.694;2023-09-12T11:25:46;19.90;99.90
6484;DHT22;3275;52.376;9.694;2023-09-12T11:28:13;19.90;99.90
6484;DHT22;3275;52.376;9.694;2023-09-12T11:30:55;19.90;99.90
6484;DHT22;3275;52.376;9.694;2023-09-12T11:33:25;20.00;99.90
6484;DHT22;3275;52.376;9.694;2023-09-12T11:35:53;20.00;99.90
6484;DHT22;3275;52.376;9.694;2023-09-12T11:38:27;19.90;99.90
6484;DHT22;3275;52.376;9.694;2023-09-12T11:40:55;19.90;99.90
6484;DHT22;3275;52.376;9.694;2023-09-12T11:43:22;20.00;99.90
6484;DHT22;3275;52.376;9.694;2023-09-12T11:45:50;19.90;99.90
6484;DHT22;3275;52.376;9.694;2023-09-12T11:48:18;19.80;99.90
6484;DHT22;3275;52.376;9.694;2023-09-12T11:50:51;19.80;99.90
6484;DHT22;3275;52.376;9.694;2023-09-12T11:53:20;19.80;99.90
6484;DHT22;3275;52.376;9.694;2023-09-12T11:55:52;19.80;99.90
6484;DHT22;3275;52.376;9.694;2023-09-12T11:58:20;19.70;99.90
6484;DHT22;3275;52.376;9.694;2023-09-12T12:00:48;19.70;99.90
6484;DHT22;3275;52.376;9.694;2023-09-12T12:03:17;19.70;99.90
6484;DHT22;3275;52.376;9.694;2023-09-12T12:05:43;19.70;99.90
6484;DHT22;3275;52.376;9.694;2023-09-12T12:08:12;19.50;99.90
6484;DHT22;3275;52.376;9.694;2023-09-12T12:10:39;19.50;99.90
6484;DHT22;3275;52.376;9.694;2023-09-12T12:13:06;19.50;99.90
6484;DHT22;3275;52.376;9.694;2023-09-12T12:15:33;19.50;99.90
6484;DHT22;3275;52.376;9.694;2023-09-12T12:18:00;19.50;99.90
6484;DHT22;3275;52.376;9.694;2023-09-12T12:20:27;19.50;99.90
6484;DHT22;3275;52.376;9.694;2023-09-12T12:22:55;19.60;99.90
6484;DHT22;3275;52.376;9.694;2023-09-12T12:25:23;19.60;99.90
6484;DHT22;3275;52.376;9.694;2023-09-12T12:27:50;19.60;99.90
6484;DHT22;3275;52.376;9.694;2023-09-12T12:30:18;19.70;99.90
6484;DHT22;3275;52.376;9.694;2023-09-12T12:32:46;19.70;99.90
6484;DHT22;3275;52.376;9.694;2023-09-12T12:35:20;19.70;99.90
6484;DHT22;3275;52.376;9.694;2023-09-12T12:37:48;19.80;99.90
6484;DHT22;3275;52.376;9.694;2023-09-12T12:40:15;19.80;99.90
6484;DHT22;3275;52.376;9.694;2023-09-12T12:42:44;19.80;99.90
6484;DHT22;3275;52.376;9.694;2023-09-12T12:45:12;19.90;99.90
6484;DHT22;3275;52.376;9.694;2023-09-12T12:47:40;19.90;99.90
6484;DHT22;3275;52.376;9.694;2023-09-12T12:50:11;20.00;99.90
6484;DHT22;3275;52.376;9.694;2023-09-12T12:52:38;20.00;99.90
6484;DHT22;3275;52.376;9.694;2023-09-12T12:55:06;20.00;99.90
6484;DHT22;3275;52.376;9.694;2023-09-12T12:57:36;20.00;99.90
6484;DHT22;3275;52.376;9.694;2023-09-12T13:00:08;20.00;99.90
6484;DHT22;3275;52.376;9.694;2023-09-12T13:02:36;20.10;99.90
6484;DHT22;3275;52.376;9.694;2023-09-12T13:05:18;20.20;99.90
6484;DHT22;3275;52.376;9.694;2023-09-12T13:07:45;20.30;99.90
6484;DHT22;3275;52.376;9.694;2023-09-12T13:10:12;20.70;99.90
6484;DHT22;3275;52.376;9.694;2023-09-12T13:12:38;21.40;99.90
6484;DHT22;3275;52.376;9.694;2023-09-12T13:15:07;22.10;99.90
6484;DHT22;3275;52.376;9.694;2023-09-12T13:17:34;22.60;99.90
6484;DHT22;3275;52.376;9.694;2023-09-12T13:20:01;23.10;99.90
6484;DHT22;3275;52.376;9.694;2023-09-12T13:22:28;23.50;99.90
6484;DHT22;3275;52.376;9.694;2023-09-12T13:24:55;23.90;99.90
6484;DHT22;3275;52.376;9.694;2023-09-12T13:27:21;24.00;99.90
6484;DHT22;3275;52.376;9.694;2023-09-12T13:29:48;24.40;99.90
6484;DHT22;3275;52.376;9.694;2023-09-12T13:32:16;25.00;99.90
6484;DHT22;3275;52.376;9.694;2023-09-12T13:34:43;25.30;99.90
6484;DHT22;3275;52.376;9.694;2023-09-12T13:37:10;25.60;99.90
6484;DHT22;3275;52.376;9.694;2023-09-12T13:39:37;26.00;99.90
6484;DHT22;3275;52.376;9.694;2023-09-12T13:42:06;26.90;99.90
6484;DHT22;3275;52.376;9.694;2023-09-12T13:44:35;27.10;99.90
6484;DHT22;3275;52.376;9.694;2023-09-12T13:47:01;26.90;99.90
6484;DHT22;3275;52.376;9.694;2023-09-12T13:49:29;26.90;99.90
6484;DHT22;3275;52.376;9.694;2023-09-12T13:51:56;27.30;99.90
6484;DHT22;3275;52.376;9.694;2023-09-12T13:54:23;27.20;99.90
6484;DHT22;3275;52.376;9.694;2023-09-12T13:56:49;26.50;99.90
6484;DHT22;3275;52.376;9.694;2023-09-12T13:59:16;25.70;99.90
6484;DHT22;3275;52.376;9.694;2023-09-12T14:01:45;25.30;99.90
6484;DHT22;3275;52.376;9.694;2023-09-12T14:04:12;24.90;99.90
6484;DHT22;3275;52.376;9.694;2023-09-12T14:06:41;24.70;99.90
6484;DHT22;3275;52.376;9.694;2023-09-12T14:09:08;24.40;99.90
6484;DHT22;3275;52.376;9.694;2023-09-12T14:11:35;24.30;99.90
6484;DHT22;3275;52.376;9.694;2023-09-12T14:14:02;24.30;99.90
6484;DHT22;3275;52.376;9.694;2023-09-12T14:16:28;24.10;99.90
6484;DHT22;3275;52.376;9.694;2023-09-12T14:18:55;24.00;99.90
6484;DHT22;3275;52.376;9.694;2023-09-12T14:21:22;23.90;99.90
6484;DHT22;3275;52.376;9.694;2023-09-12T14:23:50;23.80;99.90
6484;DHT22;3275;52.376;9.694;2023-09-12T14:26:17;23.70;99.90
6484;DHT22;3275;52.376;9.694;2023-09-12T14:28:43;23.70;99.90
6484;DHT22;3275;52.376;9.694;2023-09-12T14:31:11;23.70;99.90
6484;DHT22;3275;52.376;9.694;2023-09-12T14:33:40;23.70;99.90
6484;DHT22;3275;52.376;9.694;2023-09-12T14:36:08;23.50;99.90
6484;DHT22;3275;52.376;9.694;2023-09-12T14:38:35;23.40;99.90
6484;DHT22;3275;52.376;9.694;2023-09-12T14:41:03;23.50;99.90
6484;DHT22;3275;52.376;9.694;2023-09-12T14:43:29;23.40;99.90
6484;DHT22;3275;52.376;9.694;2023-09-12T14:45:56;23.50;99.90
6484;DHT22;3275;52.376;9.694;2023-09-12T14:48:23;23.50;99.90
6484;DHT22;3275;52.376;9.694;2023-09-12T14:50:49;23.60;99.90
6484;DHT22;3275;52.376;9.694;2023-09-12T14:53:17;23.60;99.90
6484;DHT22;3275;52.376;9.694;2023-09-12T14:55:43;23.50;99.90
6484;DHT22;3275;52.376;9.694;2023-09-12T14:58:12;23.50;99.90
6484;DHT22;3275;52.376;9.694;2023-09-12T15:00:38;23.50;99.90
6484;DHT22;3275;52.376;9.694;2023-09-12T15:03:05;23.40;99.90
6484;DHT22;3275;52.376;9.694;2023-09-12T15:05:32;23.40;99.90
6484;DHT22;3275;52.376;9.694;2023-09-12T15:07:58;23.30;99.90
6484;DHT22;3275;52.376;9.694;2023-09-12T15:10:25;23.30;99.90
6484;DHT22;3275;52.376;9.694;2023-09-12T15:12:52;23.20;99.90
6484;DHT22;3275;52.376;9.694;2023-09-12T15:15:20;23.20;99.90
6484;DHT22;3275;52.376;9.694;2023-09-12T15:17:47;23.00;99.90
6484;DHT22;3275;52.376;9.694;2023-09-12T15:20:13;23.00;99.90
6484;DHT22;3275;52.376;9.694;2023-09-12T15:22:40;22.90;99.90
6484;DHT22;3275;52.376;9.694;2023-09-12T15:25:09;22.90;99.90
6484;DHT22;3275;52.376;9.694;2023-09-12T15:27:35;22.90;99.90
6484;DHT22;3275;52.376;9.694;2023-09-12T15:30:02;22.90;99.90
6484;DHT22;3275;52.376;9.694;2023-09-12T15:32:31;22.90;99.90
6484;DHT22;3275;52.376;9.694;2023-09-12T15:34:58;22.80;99.90
6484;DHT22;3275;52.376;9.694;2023-09-12T15:37:25;22.70;99.90
6484;DHT22;3275;52.376;9.694;2023-09-12T15:39:51;22.60;99.90
6484;DHT22;3275;52.376;9.694;2023-09-12T15:42:19;22.50;99.90
6484;DHT22;3275;52.376;9.694;2023-09-12T15:44:45;22.50;99.90
6484;DHT22;3275;52.376;9.694;2023-09-12T15:47:12;22.50;99.90
6484;DHT22;3275;52.376;9.694;2023-09-12T15:49:40;22.50;99.90
6484;DHT22;3275;52.376;9.694;2023-09-12T15:52:06;22.40;99.90
6484;DHT22;3275;52.376;9.694;2023-09-12T15:54:33;22.40;99.90
6484;DHT22;3275;52.376;9.694;2023-09-12T15:57:00;22.40;99.90
6484;DHT22;3275;52.376;9.694;2023-09-12T15:59:27;22.30;99.90
6484;DHT22;3275;52.376;9.694;2023-09-12T16:01:56;22.30;99.90
6484;DHT22;3275;52.376;9.694;2023-09-12T16:04:23;22.30;99.90
6484;DHT22;3275;52.376;9.694;2023-09-12T16:06:53;22.30;99.90
6484;DHT22;3275;52.376;9.694;2023-09-12T16:09:20;22.30;99.90
6484;DHT22;3275;52.376;9.694;2023-09-12T16:11:47;22.40;99.90
6484;DHT22;3275;52.376;9.694;2023-09-12T16:14:15;22.40;99.90